sensor_id;sensor_type;location;lat;lon;timestamp;P1;durP1;ratioP1;P2;durP2;ratioP2
25331;SDS011;13284;52.748;13.452;2022-09-09T00:00:49;16.30;;;9.83;;
25331;SDS011;13284;52.748;13.452;2022-09-09T00:03:27;14.20;;;9.93;;
25331;SDS011;13284;52.748;13.452;2022-09-09T00:06:08;12.90;;;9.80;;
25331;SDS011;13284;52.748;13.452;2022-09-09T00:09:17;13.10;;;9.57;;
25331;SDS011;13284;52.748;13.452;2022-09-09T00:11:48;13.80;;;9.50;;
25331;SDS011;13284;52.748;13.452;2022-09-09T00:17:00;12.77;;;9.80;;
25331;SDS011;13284;52.748;13.452;2022-09-09T00:19:33;10.50;;;9.07;;
25331;SDS011;13284;52.748;13.452;2022-09-09T00:27:25;11.50;;;8.93;;
25331;SDS011;13284;52.748;13.452;2022-09-09T00:32:55;12.07;;;9.43;;
25331;SDS011;13284;52.748;13.452;2022-09-09T00:35:32;11.30;;;8.27;;
25331;SDS011;13284;52.748;13.452;2022-09-09T00:38:03;10.00;;;8.63;;
25331;SDS011;13284;52.748;13.452;2022-09-09T00:43:36;9.77;;;7.60;;
25331;SDS011;13284;52.748;13.452;2022-09-09T00:57:35;9.73;;;8.70;;
25331;SDS011;13284;52.748;13.452;2022-09-09T01:05:30;10.67;;;8.27;;
25331;SDS011;13284;52.748;13.452;2022-09-09T01:11:01;12.60;;;7.57;;
25331;SDS011;13284;52.748;13.452;2022-09-09T01:13:29;10.43;;;8.43;;
25331;SDS011;13284;52.748;13.452;2022-09-09T01:16:00;9.80;;;8.10;;
25331;SDS011;13284;52.748;13.452;2022-09-09T01:18:32;11.87;;;8.57;;
25331;SDS011;13284;52.748;13.452;2022-09-09T01:26:52;10.77;;;7.70;;
25331;SDS011;13284;52.748;13.452;2022-09-09T01:29:24;10.63;;;9.10;;
25331;SDS011;13284;52.748;13.452;2022-09-09T01:34:22;11.20;;;8.50;;
25331;SDS011;13284;52.748;13.452;2022-09-09T01:37:05;9.90;;;8.07;;
25331;SDS011;13284;52.748;13.452;2022-09-09T01:39:33;10.63;;;7.80;;
25331;SDS011;13284;52.748;13.452;2022-09-09T01:42:00;10.80;;;8.10;;
25331;SDS011;13284;52.748;13.452;2022-09-09T01:44:27;12.80;;;8.30;;
25331;SDS011;13284;52.748;13.452;2022-09-09T01:46:54;10.60;;;7.97;;
25331;SDS011;13284;52.748;13.452;2022-09-09T01:49:20;10.00;;;7.57;;
25331;SDS011;13284;52.748;13.452;2022-09-09T01:51:46;11.67;;;8.13;;
25331;SDS011;13284;52.748;13.452;2022-09-09T01:54:15;9.00;;;7.30;;
25331;SDS011;13284;52.748;13.452;2022-09-09T01:56:49;12.07;;;8.63;;
25331;SDS011;13284;52.748;13.452;2022-09-09T01:59:24;10.40;;;7.57;;
25331;SDS011;13284;52.748;13.452;2022-09-09T02:02:10;8.17;;;6.70;;
25331;SDS011;13284;52.748;13.452;2022-09-09T02:04:49;10.70;;;7.10;;
25331;SDS011;13284;52.748;13.452;2022-09-09T02:09:57;8.60;;;6.40;;
25331;SDS011;13284;52.748;13.452;2022-09-09T02:12:30;8.80;;;7.90;;
25331;SDS011;13284;52.748;13.452;2022-09-09T02:14:59;11.03;;;8.33;;
25331;SDS011;13284;52.748;13.452;2022-09-09T02:17:34;14.20;;;9.90;;
25331;SDS011;13284;52.748;13.452;2022-09-09T02:20:04;11.90;;;8.90;;
25331;SDS011;13284;52.748;13.452;2022-09-09T02:22:37;12.87;;;8.43;;
25331;SDS011;13284;52.748;13.452;2022-09-09T02:25:06;11.30;;;8.97;;
25331;SDS011;13284;52.748;13.452;2022-09-09T02:27:35;11.63;;;8.67;;
25331;SDS011;13284;52.748;13.452;2022-09-09T02:30:02;11.67;;;9.33;;
25331;SDS011;13284;52.748;13.452;2022-09-09T02:32:29;13.07;;;9.10;;
25331;SDS011;13284;52.748;13.452;2022-09-09T02:35:02;12.37;;;8.83;;
25331;SDS011;13284;52.748;13.452;2022-09-09T02:37:42;10.53;;;8.47;;
25331;SDS011;13284;52.748;13.452;2022-09-09T02:40:11;11.60;;;8.90;;
25331;SDS011;13284;52.748;13.452;2022-09-09T02:42:39;13.40;;;8.97;;
25331;SDS011;13284;52.748;13.452;2022-09-09T02:45:06;11.50;;;9.30;;
25331;SDS011;13284;52.748;13.452;2022-09-09T02:47:43;14.60;;;9.80;;
25331;SDS011;13284;52.748;13.452;2022-09-09T02:50:26;12.07;;;8.93;;
25331;SDS011;13284;52.748;13.452;2022-09-09T02:53:04;11.63;;;8.57;;
25331;SDS011;13284;52.748;13.452;2022-09-09T02:58:19;12.77;;;9.17;;
25331;SDS011;13284;52.748;13.452;2022-09-09T03:00:47;13.80;;;9.40;;
25331;SDS011;13284;52.748;13.452;2022-09-09T03:03:14;13.67;;;9.50;;
25331;SDS011;13284;52.748;13.452;2022-09-09T03:05:44;10.40;;;8.37;;
25331;SDS011;13284;52.748;13.452;2022-09-09T03:08:11;12.27;;;9.27;;
25331;SDS011;13284;52.748;13.452;2022-09-09T03:10:38;12.70;;;9.73;;
25331;SDS011;13284;52.748;13.452;2022-09-09T03:13:04;13.37;;;9.77;;
25331;SDS011;13284;52.748;13.452;2022-09-09T03:15:30;12.27;;;9.77;;
25331;SDS011;13284;52.748;13.452;2022-09-09T03:17:57;13.20;;;9.47;;
25331;SDS011;13284;52.748;13.452;2022-09-09T03:20:27;15.17;;;10.20;;
25331;SDS011;13284;52.748;13.452;2022-09-09T03:22:54;13.07;;;9.00;;
25331;SDS011;13284;52.748;13.452;2022-09-09T03:25:20;11.87;;;8.87;;
25331;SDS011;13284;52.748;13.452;2022-09-09T03:27:48;13.17;;;9.23;;
25331;SDS011;13284;52.748;13.452;2022-09-09T03:30:14;12.60;;;8.67;;
25331;SDS011;13284;52.748;13.452;2022-09-09T03:32:40;12.37;;;9.10;;
25331;SDS011;13284;52.748;13.452;2022-09-09T03:35:06;12.97;;;9.43;;
25331;SDS011;13284;52.748;13.452;2022-09-09T03:37:33;12.13;;;9.17;;
25331;SDS011;13284;52.748;13.452;2022-09-09T03:39:58;11.73;;;9.60;;
25331;SDS011;13284;52.748;13.452;2022-09-09T03:42:25;14.43;;;9.30;;
25331;SDS011;13284;52.748;13.452;2022-09-09T03:44:50;13.33;;;9.43;;
25331;SDS011;13284;52.748;13.452;2022-09-09T03:47:19;12.23;;;9.30;;
25331;SDS011;13284;52.748;13.452;2022-09-09T03:49:49;12.03;;;9.63;;
25331;SDS011;13284;52.748;13.452;2022-09-09T03:52:15;12.20;;;9.57;;
25331;SDS011;13284;52.748;13.452;2022-09-09T03:54:41;11.87;;;8.93;;
25331;SDS011;13284;52.748;13.452;2022-09-09T03:57:07;12.40;;;9.70;;
25331;SDS011;13284;52.748;13.452;2022-09-09T03:59:34;13.00;;;9.53;;
25331;SDS011;13284;52.748;13.452;2022-09-09T04:02:00;11.30;;;8.57;;
25331;SDS011;13284;52.748;13.452;2022-09-09T04:04:26;13.27;;;9.57;;
25331;SDS011;13284;52.748;13.452;2022-09-09T04:06:52;11.90;;;8.80;;
25331;SDS011;13284;52.748;13.452;2022-09-09T04:09:18;12.17;;;8.57;;
25331;SDS011;13284;52.748;13.452;2022-09-09T04:11:43;10.97;;;8.53;;
25331;SDS011;13284;52.748;13.452;2022-09-09T04:14:10;11.43;;;8.80;;
25331;SDS011;13284;52.748;13.452;2022-09-09T04:16:36;12.20;;;8.33;;
25331;SDS011;13284;52.748;13.452;2022-09-09T04:19:03;11.17;;;8.60;;
25331;SDS011;13284;52.748;13.452;2022-09-09T04:21:32;11.97;;;9.20;;
25331;SDS011;13284;52.748;13.452;2022-09-09T04:23:58;13.10;;;9.03;;
25331;SDS011;13284;52.748;13.452;2022-09-09T04:26:25;14.57;;;9.10;;
25331;SDS011;13284;52.748;13.452;2022-09-09T04:28:50;12.57;;;9.40;;
25331;SDS011;13284;52.748;13.452;2022-09-09T04:31:18;12.33;;;8.70;;
25331;SDS011;13284;52.748;13.452;2022-09-09T04:33:47;12.60;;;9.80;;
25331;SDS011;13284;52.748;13.452;2022-09-09T04:36:14;11.70;;;8.70;;
25331;SDS011;13284;52.748;13.452;2022-09-09T04:38:41;11.90;;;8.50;;
25331;SDS011;13284;52.748;13.452;2022-09-09T04:41:08;11.93;;;8.00;;
25331;SDS011;13284;52.748;13.452;2022-09-09T04:43:38;13.00;;;8.70;;
25331;SDS011;13284;52.748;13.452;2022-09-09T04:46:05;12.90;;;9.23;;
25331;SDS011;13284;52.748;13.452;2022-09-09T04:48:31;11.17;;;8.23;;
25331;SDS011;13284;52.748;13.452;2022-09-09T04:50:58;13.87;;;8.13;;
25331;SDS011;13284;52.748;13.452;2022-09-09T04:53:29;11.53;;;9.13;;
25331;SDS011;13284;52.748;13.452;2022-09-09T04:56:06;10.00;;;7.90;;
25331;SDS011;13284;52.748;13.452;2022-09-09T04:58:35;14.50;;;8.80;;
25331;SDS011;13284;52.748;13.452;2022-09-09T05:03:54;14.63;;;10.10;;
25331;SDS011;13284;52.748;13.452;2022-09-09T05:06:20;12.67;;;8.97;;
25331;SDS011;13284;52.748;13.452;2022-09-09T05:08:47;8.73;;;7.83;;
25331;SDS011;13284;52.748;13.452;2022-09-09T05:11:23;11.40;;;7.93;;
25331;SDS011;13284;52.748;13.452;2022-09-09T05:13:51;9.27;;;7.17;;
25331;SDS011;13284;52.748;13.452;2022-09-09T05:16:19;9.40;;;7.90;;
25331;SDS011;13284;52.748;13.452;2022-09-09T05:18:45;11.70;;;7.67;;
25331;SDS011;13284;52.748;13.452;2022-09-09T05:21:12;9.40;;;7.37;;
25331;SDS011;13284;52.748;13.452;2022-09-09T05:23:39;10.83;;;7.97;;
25331;SDS011;13284;52.748;13.452;2022-09-09T05:26:06;9.10;;;8.20;;
25331;SDS011;13284;52.748;13.452;2022-09-09T05:28:34;7.93;;;7.13;;
25331;SDS011;13284;52.748;13.452;2022-09-09T05:31:02;8.97;;;7.50;;
25331;SDS011;13284;52.748;13.452;2022-09-09T05:33:30;10.40;;;8.30;;
25331;SDS011;13284;52.748;13.452;2022-09-09T05:35:57;10.97;;;7.50;;
25331;SDS011;13284;52.748;13.452;2022-09-09T05:38:25;8.37;;;7.10;;
25331;SDS011;13284;52.748;13.452;2022-09-09T05:40:51;9.30;;;8.00;;
25331;SDS011;13284;52.748;13.452;2022-09-09T05:43:18;9.90;;;7.47;;
25331;SDS011;13284;52.748;13.452;2022-09-09T05:45:47;8.37;;;7.07;;
25331;SDS011;13284;52.748;13.452;2022-09-09T05:48:14;10.20;;;6.30;;
25331;SDS011;13284;52.748;13.452;2022-09-09T05:50:41;7.73;;;6.60;;
25331;SDS011;13284;52.748;13.452;2022-09-09T05:53:07;7.43;;;6.70;;
25331;SDS011;13284;52.748;13.452;2022-09-09T05:55:35;7.60;;;6.50;;
25331;SDS011;13284;52.748;13.452;2022-09-09T05:58:01;12.20;;;9.23;;
25331;SDS011;13284;52.748;13.452;2022-09-09T06:00:27;8.77;;;7.53;;
25331;SDS011;13284;52.748;13.452;2022-09-09T06:02:56;8.07;;;7.27;;
25331;SDS011;13284;52.748;13.452;2022-09-09T06:05:22;8.80;;;7.17;;
25331;SDS011;13284;52.748;13.452;2022-09-09T06:07:52;7.63;;;6.03;;
25331;SDS011;13284;52.748;13.452;2022-09-09T06:10:18;7.43;;;6.47;;
25331;SDS011;13284;52.748;13.452;2022-09-09T06:12:44;9.37;;;6.67;;
25331;SDS011;13284;52.748;13.452;2022-09-09T06:15:10;7.93;;;6.20;;
25331;SDS011;13284;52.748;13.452;2022-09-09T06:17:36;6.97;;;5.90;;
25331;SDS011;13284;52.748;13.452;2022-09-09T06:20:04;7.10;;;6.27;;
25331;SDS011;13284;52.748;13.452;2022-09-09T06:22:30;7.10;;;5.90;;
25331;SDS011;13284;52.748;13.452;2022-09-09T06:24:56;8.17;;;7.37;;
25331;SDS011;13284;52.748;13.452;2022-09-09T06:27:22;7.23;;;6.53;;
25331;SDS011;13284;52.748;13.452;2022-09-09T06:29:48;7.27;;;6.20;;
25331;SDS011;13284;52.748;13.452;2022-09-09T06:32:14;7.07;;;6.17;;
25331;SDS011;13284;52.748;13.452;2022-09-09T06:34:40;7.00;;;6.23;;
25331;SDS011;13284;52.748;13.452;2022-09-09T06:37:06;9.17;;;7.40;;
25331;SDS011;13284;52.748;13.452;2022-09-09T06:39:33;10.40;;;7.03;;
25331;SDS011;13284;52.748;13.452;2022-09-09T06:42:02;8.73;;;6.50;;
25331;SDS011;13284;52.748;13.452;2022-09-09T06:44:29;10.30;;;7.10;;
25331;SDS011;13284;52.748;13.452;2022-09-09T06:46:56;8.67;;;7.83;;
25331;SDS011;13284;52.748;13.452;2022-09-09T06:49:22;7.27;;;6.57;;
25331;SDS011;13284;52.748;13.452;2022-09-09T06:51:48;7.57;;;6.50;;
25331;SDS011;13284;52.748;13.452;2022-09-09T06:54:15;8.17;;;6.53;;
25331;SDS011;13284;52.748;13.452;2022-09-09T06:56:41;8.10;;;6.60;;
25331;SDS011;13284;52.748;13.452;2022-09-09T06:59:08;6.17;;;5.60;;
25331;SDS011;13284;52.748;13.452;2022-09-09T07:01:39;7.40;;;6.60;;
25331;SDS011;13284;52.748;13.452;2022-09-09T07:04:06;7.17;;;6.23;;
25331;SDS011;13284;52.748;13.452;2022-09-09T07:06:33;7.60;;;6.67;;
25331;SDS011;13284;52.748;13.452;2022-09-09T07:09:02;7.30;;;6.47;;
25331;SDS011;13284;52.748;13.452;2022-09-09T07:11:39;6.60;;;5.97;;
25331;SDS011;13284;52.748;13.452;2022-09-09T07:14:07;7.17;;;6.47;;
25331;SDS011;13284;52.748;13.452;2022-09-09T07:16:33;8.40;;;6.23;;
25331;SDS011;13284;52.748;13.452;2022-09-09T07:19:02;6.53;;;5.90;;
25331;SDS011;13284;52.748;13.452;2022-09-09T07:21:29;7.27;;;6.50;;
25331;SDS011;13284;52.748;13.452;2022-09-09T07:23:56;7.33;;;5.77;;
25331;SDS011;13284;52.748;13.452;2022-09-09T07:26:23;6.30;;;5.70;;
25331;SDS011;13284;52.748;13.452;2022-09-09T07:28:50;8.60;;;6.10;;
25331;SDS011;13284;52.748;13.452;2022-09-09T07:31:20;6.30;;;5.70;;
25331;SDS011;13284;52.748;13.452;2022-09-09T07:33:49;8.57;;;6.40;;
25331;SDS011;13284;52.748;13.452;2022-09-09T07:36:19;6.37;;;5.77;;
25331;SDS011;13284;52.748;13.452;2022-09-09T07:38:49;7.40;;;5.93;;
25331;SDS011;13284;52.748;13.452;2022-09-09T07:41:21;5.60;;;5.10;;
25331;SDS011;13284;52.748;13.452;2022-09-09T07:43:53;6.17;;;5.57;;
25331;SDS011;13284;52.748;13.452;2022-09-09T07:46:20;7.90;;;6.37;;
25331;SDS011;13284;52.748;13.452;2022-09-09T07:48:49;8.63;;;5.40;;
25331;SDS011;13284;52.748;13.452;2022-09-09T07:51:18;6.37;;;5.77;;
25331;SDS011;13284;52.748;13.452;2022-09-09T07:53:47;7.63;;;6.03;;
25331;SDS011;13284;52.748;13.452;2022-09-09T07:56:17;7.47;;;5.10;;
25331;SDS011;13284;52.748;13.452;2022-09-09T07:58:47;6.90;;;5.67;;
25331;SDS011;13284;52.748;13.452;2022-09-09T08:01:14;6.33;;;5.27;;
25331;SDS011;13284;52.748;13.452;2022-09-09T08:03:43;6.07;;;5.10;;
25331;SDS011;13284;52.748;13.452;2022-09-09T08:06:17;5.40;;;4.90;;
25331;SDS011;13284;52.748;13.452;2022-09-09T08:08:43;7.60;;;4.77;;
25331;SDS011;13284;52.748;13.452;2022-09-09T08:11:11;5.23;;;4.37;;
25331;SDS011;13284;52.748;13.452;2022-09-09T08:13:39;6.13;;;4.30;;
25331;SDS011;13284;52.748;13.452;2022-09-09T08:16:13;6.73;;;5.00;;
25331;SDS011;13284;52.748;13.452;2022-09-09T08:18:40;5.13;;;4.07;;
25331;SDS011;13284;52.748;13.452;2022-09-09T08:21:07;4.13;;;3.73;;
25331;SDS011;13284;52.748;13.452;2022-09-09T08:23:41;3.60;;;3.30;;
25331;SDS011;13284;52.748;13.452;2022-09-09T08:26:12;7.33;;;3.50;;
25331;SDS011;13284;52.748;13.452;2022-09-09T08:28:40;3.50;;;3.10;;
25331;SDS011;13284;52.748;13.452;2022-09-09T08:31:11;4.03;;;2.97;;
25331;SDS011;13284;52.748;13.452;2022-09-09T08:33:39;3.47;;;2.40;;
25331;SDS011;13284;52.748;13.452;2022-09-09T08:36:08;3.87;;;2.97;;
25331;SDS011;13284;52.748;13.452;2022-09-09T08:38:36;4.83;;;3.17;;
25331;SDS011;13284;52.748;13.452;2022-09-09T08:41:52;4.67;;;3.30;;
25331;SDS011;13284;52.748;13.452;2022-09-09T08:44:05;4.40;;;2.57;;
25331;SDS011;13284;52.748;13.452;2022-09-09T08:55:48;2.80;;;2.20;;
25331;SDS011;13284;52.748;13.452;2022-09-09T08:58:38;2.70;;;2.30;;
25331;SDS011;13284;52.748;13.452;2022-09-09T09:29:23;3.50;;;2.10;;
25331;SDS011;13284;52.748;13.452;2022-09-09T09:31:52;2.50;;;2.30;;
25331;SDS011;13284;52.748;13.452;2022-09-09T09:34:26;3.80;;;2.40;;
25331;SDS011;13284;52.748;13.452;2022-09-09T09:36:53;3.20;;;2.30;;
25331;SDS011;13284;52.748;13.452;2022-09-09T09:42:09;2.80;;;2.60;;
25331;SDS011;13284;52.748;13.452;2022-09-09T09:44:39;2.50;;;2.30;;
25331;SDS011;13284;52.748;13.452;2022-09-09T09:47:06;2.37;;;2.17;;
25331;SDS011;13284;52.748;13.452;2022-09-09T09:49:34;2.73;;;2.10;;
25331;SDS011;13284;52.748;13.452;2022-09-09T09:52:01;5.10;;;2.27;;
25331;SDS011;13284;52.748;13.452;2022-09-09T09:54:31;4.20;;;2.60;;
25331;SDS011;13284;52.748;13.452;2022-09-09T09:57:10;4.50;;;2.50;;
25331;SDS011;13284;52.748;13.452;2022-09-09T09:59:38;4.30;;;2.20;;
25331;SDS011;13284;52.748;13.452;2022-09-09T10:04:38;2.83;;;2.63;;
25331;SDS011;13284;52.748;13.452;2022-09-09T10:07:17;4.20;;;2.40;;
25331;SDS011;13284;52.748;13.452;2022-09-09T10:09:44;3.90;;;2.40;;
25331;SDS011;13284;52.748;13.452;2022-09-09T10:20:21;2.80;;;1.97;;
25331;SDS011;13284;52.748;13.452;2022-09-09T10:34:42;2.87;;;1.50;;
25331;SDS011;13284;52.748;13.452;2022-09-09T10:40:38;2.30;;;2.20;;
25331;SDS011;13284;52.748;13.452;2022-09-09T10:46:03;1.73;;;1.63;;
25331;SDS011;13284;52.748;13.452;2022-09-09T10:51:33;3.23;;;1.10;;
25331;SDS011;13284;52.748;13.452;2022-09-09T10:54:17;2.10;;;1.20;;
25331;SDS011;13284;52.748;13.452;2022-09-09T10:56:54;1.80;;;1.10;;
25331;SDS011;13284;52.748;13.452;2022-09-09T10:59:24;1.70;;;1.40;;
25331;SDS011;13284;52.748;13.452;2022-09-09T11:01:57;1.53;;;1.20;;
25331;SDS011;13284;52.748;13.452;2022-09-09T11:04:29;1.83;;;1.70;;
25331;SDS011;13284;52.748;13.452;2022-09-09T11:07:08;1.23;;;1.10;;
25331;SDS011;13284;52.748;13.452;2022-09-09T11:09:39;2.10;;;1.27;;
25331;SDS011;13284;52.748;13.452;2022-09-09T11:12:12;3.30;;;1.80;;
25331;SDS011;13284;52.748;13.452;2022-09-09T11:15:03;1.40;;;1.30;;
25331;SDS011;13284;52.748;13.452;2022-09-09T11:17:33;1.80;;;1.60;;
25331;SDS011;13284;52.748;13.452;2022-09-09T11:20:06;4.17;;;1.50;;
25331;SDS011;13284;52.748;13.452;2022-09-09T11:22:43;3.10;;;1.73;;
25331;SDS011;13284;52.748;13.452;2022-09-09T11:28:31;1.93;;;1.23;;
25331;SDS011;13284;52.748;13.452;2022-09-09T11:31:19;2.30;;;1.20;;
25331;SDS011;13284;52.748;13.452;2022-09-09T11:34:03;1.53;;;1.40;;
25331;SDS011;13284;52.748;13.452;2022-09-09T11:37:02;1.63;;;1.50;;
25331;SDS011;13284;52.748;13.452;2022-09-09T11:42:41;2.90;;;1.70;;
25331;SDS011;13284;52.748;13.452;2022-09-09T11:45:26;2.80;;;1.40;;
25331;SDS011;13284;52.748;13.452;2022-09-09T11:47:57;1.90;;;1.47;;
25331;SDS011;13284;52.748;13.452;2022-09-09T11:52:50;1.50;;;1.40;;
25331;SDS011;13284;52.748;13.452;2022-09-09T11:55:28;4.10;;;1.60;;
25331;SDS011;13284;52.748;13.452;2022-09-09T11:58:01;3.77;;;1.27;;
25331;SDS011;13284;52.748;13.452;2022-09-09T12:03:00;3.57;;;1.60;;
25331;SDS011;13284;52.748;13.452;2022-09-09T12:05:36;1.70;;;1.60;;
25331;SDS011;13284;52.748;13.452;2022-09-09T12:08:08;2.00;;;1.30;;
25331;SDS011;13284;52.748;13.452;2022-09-09T12:10:37;3.00;;;1.40;;
25331;SDS011;13284;52.748;13.452;2022-09-09T12:13:23;2.17;;;1.20;;
25331;SDS011;13284;52.748;13.452;2022-09-09T12:15:54;1.10;;;1.00;;
25331;SDS011;13284;52.748;13.452;2022-09-09T12:18:38;2.30;;;1.43;;
25331;SDS011;13284;52.748;13.452;2022-09-09T12:21:21;1.00;;;0.87;;
25331;SDS011;13284;52.748;13.452;2022-09-09T12:24:09;2.03;;;1.20;;
25331;SDS011;13284;52.748;13.452;2022-09-09T12:26:41;2.53;;;1.20;;
25331;SDS011;13284;52.748;13.452;2022-09-09T12:29:19;1.20;;;1.10;;
25331;SDS011;13284;52.748;13.452;2022-09-09T12:31:52;1.17;;;1.00;;
25331;SDS011;13284;52.748;13.452;2022-09-09T12:34:49;1.97;;;1.20;;
25331;SDS011;13284;52.748;13.452;2022-09-09T12:37:36;1.80;;;1.30;;
25331;SDS011;13284;52.748;13.452;2022-09-09T12:42:49;2.83;;;1.10;;
25331;SDS011;13284;52.748;13.452;2022-09-09T12:45:16;0.97;;;0.97;;
25331;SDS011;13284;52.748;13.452;2022-09-09T12:47:45;0.97;;;0.97;;
25331;SDS011;13284;52.748;13.452;2022-09-09T12:50:33;2.63;;;1.13;;
25331;SDS011;13284;52.748;13.452;2022-09-09T12:56:25;0.90;;;0.90;;
25331;SDS011;13284;52.748;13.452;2022-09-09T12:58:48;2.60;;;1.67;;
25331;SDS011;13284;52.748;13.452;2022-09-09T13:01:24;2.47;;;1.43;;
25331;SDS011;13284;52.748;13.452;2022-09-09T13:03:51;2.30;;;2.10;;
25331;SDS011;13284;52.748;13.452;2022-09-09T13:06:25;1.03;;;0.97;;
25331;SDS011;13284;52.748;13.452;2022-09-09T13:08:56;1.70;;;1.20;;
25331;SDS011;13284;52.748;13.452;2022-09-09T13:11:37;2.27;;;1.33;;
25331;SDS011;13284;52.748;13.452;2022-09-09T13:14:12;2.10;;;1.27;;
25331;SDS011;13284;52.748;13.452;2022-09-09T13:16:43;3.50;;;2.57;;
25331;SDS011;13284;52.748;13.452;2022-09-09T13:19:19;1.57;;;1.27;;
25331;SDS011;13284;52.748;13.452;2022-09-09T13:21:46;1.23;;;1.13;;
25331;SDS011;13284;52.748;13.452;2022-09-09T13:24:26;1.73;;;1.30;;
25331;SDS011;13284;52.748;13.452;2022-09-09T13:27:00;3.00;;;1.10;;
25331;SDS011;13284;52.748;13.452;2022-09-09T13:29:29;2.40;;;1.40;;
25331;SDS011;13284;52.748;13.452;2022-09-09T13:32:06;3.07;;;1.47;;
25331;SDS011;13284;52.748;13.452;2022-09-09T13:34:37;1.63;;;1.07;;
25331;SDS011;13284;52.748;13.452;2022-09-09T13:37:07;1.60;;;1.50;;
25331;SDS011;13284;52.748;13.452;2022-09-09T13:39:50;4.23;;;2.80;;
25331;SDS011;13284;52.748;13.452;2022-09-09T13:42:28;2.63;;;2.00;;
25331;SDS011;13284;52.748;13.452;2022-09-09T13:44:56;2.33;;;1.50;;
25331;SDS011;13284;52.748;13.452;2022-09-09T13:47:31;2.73;;;1.40;;
25331;SDS011;13284;52.748;13.452;2022-09-09T13:50:10;2.90;;;1.60;;
25331;SDS011;13284;52.748;13.452;2022-09-09T13:52:53;1.33;;;1.23;;
25331;SDS011;13284;52.748;13.452;2022-09-09T13:55:24;1.27;;;1.17;;
25331;SDS011;13284;52.748;13.452;2022-09-09T13:58:02;4.53;;;1.50;;
25331;SDS011;13284;52.748;13.452;2022-09-09T14:00:31;1.40;;;1.17;;
25331;SDS011;13284;52.748;13.452;2022-09-09T14:02:58;3.30;;;1.43;;
25331;SDS011;13284;52.748;13.452;2022-09-09T14:05:26;3.70;;;2.10;;
25331;SDS011;13284;52.748;13.452;2022-09-09T14:07:52;3.73;;;1.77;;
25331;SDS011;13284;52.748;13.452;2022-09-09T14:10:18;1.27;;;1.20;;
25331;SDS011;13284;52.748;13.452;2022-09-09T14:12:44;1.67;;;1.27;;
25331;SDS011;13284;52.748;13.452;2022-09-09T14:15:11;1.10;;;1.10;;
25331;SDS011;13284;52.748;13.452;2022-09-09T14:17:37;1.93;;;1.20;;
25331;SDS011;13284;52.748;13.452;2022-09-09T14:20:04;1.70;;;1.40;;
25331;SDS011;13284;52.748;13.452;2022-09-09T14:22:34;1.53;;;1.10;;
25331;SDS011;13284;52.748;13.452;2022-09-09T14:25:00;1.37;;;1.27;;
25331;SDS011;13284;52.748;13.452;2022-09-09T14:27:27;1.20;;;0.97;;
25331;SDS011;13284;52.748;13.452;2022-09-09T14:29:53;1.43;;;1.33;;
25331;SDS011;13284;52.748;13.452;2022-09-09T14:32:19;1.70;;;1.17;;
25331;SDS011;13284;52.748;13.452;2022-09-09T14:34:46;2.10;;;1.10;;
25331;SDS011;13284;52.748;13.452;2022-09-09T14:37:14;3.00;;;1.23;;
25331;SDS011;13284;52.748;13.452;2022-09-09T14:39:41;1.33;;;1.03;;
25331;SDS011;13284;52.748;13.452;2022-09-09T14:42:09;2.17;;;1.30;;
25331;SDS011;13284;52.748;13.452;2022-09-09T14:44:36;5.13;;;1.10;;
25331;SDS011;13284;52.748;13.452;2022-09-09T14:47:05;1.40;;;1.30;;
25331;SDS011;13284;52.748;13.452;2022-09-09T14:49:33;2.17;;;1.20;;
25331;SDS011;13284;52.748;13.452;2022-09-09T14:52:02;2.37;;;1.93;;
25331;SDS011;13284;52.748;13.452;2022-09-09T14:54:28;2.00;;;1.30;;
25331;SDS011;13284;52.748;13.452;2022-09-09T14:56:54;3.07;;;1.00;;
25331;SDS011;13284;52.748;13.452;2022-09-09T14:59:19;2.00;;;0.80;;
25331;SDS011;13284;52.748;13.452;2022-09-09T15:01:45;2.17;;;1.30;;
25331;SDS011;13284;52.748;13.452;2022-09-09T15:04:11;3.70;;;1.47;;
25331;SDS011;13284;52.748;13.452;2022-09-09T15:06:39;1.40;;;0.80;;
25331;SDS011;13284;52.748;13.452;2022-09-09T15:09:07;1.40;;;1.30;;
25331;SDS011;13284;52.748;13.452;2022-09-09T15:11:34;2.27;;;1.10;;
25331;SDS011;13284;52.748;13.452;2022-09-09T15:14:02;1.80;;;1.33;;
25331;SDS011;13284;52.748;13.452;2022-09-09T15:16:32;1.83;;;1.10;;
25331;SDS011;13284;52.748;13.452;2022-09-09T15:19:00;2.80;;;1.20;;
25331;SDS011;13284;52.748;13.452;2022-09-09T15:30:50;1.40;;;1.30;;
25331;SDS011;13284;52.748;13.452;2022-09-09T15:37:43;2.13;;;1.43;;
25331;SDS011;13284;52.748;13.452;2022-09-09T15:40:56;2.53;;;1.23;;
25331;SDS011;13284;52.748;13.452;2022-09-09T15:43:23;3.73;;;2.37;;
25331;SDS011;13284;52.748;13.452;2022-09-09T15:45:51;3.10;;;1.70;;
25331;SDS011;13284;52.748;13.452;2022-09-09T15:48:32;1.40;;;1.30;;
25331;SDS011;13284;52.748;13.452;2022-09-09T15:51:04;1.73;;;1.00;;
25331;SDS011;13284;52.748;13.452;2022-09-09T15:53:30;1.80;;;1.43;;
25331;SDS011;13284;52.748;13.452;2022-09-09T15:55:59;1.73;;;1.17;;
25331;SDS011;13284;52.748;13.452;2022-09-09T15:58:25;1.47;;;1.10;;
25331;SDS011;13284;52.748;13.452;2022-09-09T16:01:01;2.10;;;1.20;;
25331;SDS011;13284;52.748;13.452;2022-09-09T16:03:37;3.20;;;1.70;;
25331;SDS011;13284;52.748;13.452;2022-09-09T16:06:05;2.70;;;1.80;;
25331;SDS011;13284;52.748;13.452;2022-09-09T16:08:32;2.53;;;2.27;;
25331;SDS011;13284;52.748;13.452;2022-09-09T16:11:12;3.90;;;2.83;;
25331;SDS011;13284;52.748;13.452;2022-09-09T16:13:41;3.17;;;2.13;;
25331;SDS011;13284;52.748;13.452;2022-09-09T16:16:09;2.30;;;1.93;;
25331;SDS011;13284;52.748;13.452;2022-09-09T16:18:38;2.40;;;2.20;;
25331;SDS011;13284;52.748;13.452;2022-09-09T16:21:06;3.90;;;2.23;;
25331;SDS011;13284;52.748;13.452;2022-09-09T16:23:33;2.60;;;1.73;;
25331;SDS011;13284;52.748;13.452;2022-09-09T16:26:00;2.30;;;2.20;;
25331;SDS011;13284;52.748;13.452;2022-09-09T16:28:26;2.97;;;2.77;;
25331;SDS011;13284;52.748;13.452;2022-09-09T16:30:53;3.27;;;2.97;;
25331;SDS011;13284;52.748;13.452;2022-09-09T16:33:19;4.23;;;2.93;;
25331;SDS011;13284;52.748;13.452;2022-09-09T16:35:46;3.93;;;2.30;;
25331;SDS011;13284;52.748;13.452;2022-09-09T16:38:11;2.17;;;1.90;;
25331;SDS011;13284;52.748;13.452;2022-09-09T16:40:37;3.67;;;2.60;;
25331;SDS011;13284;52.748;13.452;2022-09-09T16:43:06;2.10;;;1.90;;
25331;SDS011;13284;52.748;13.452;2022-09-09T16:45:40;4.57;;;2.63;;
25331;SDS011;13284;52.748;13.452;2022-09-09T16:48:07;3.83;;;2.30;;
25331;SDS011;13284;52.748;13.452;2022-09-09T16:50:33;5.53;;;3.33;;
25331;SDS011;13284;52.748;13.452;2022-09-09T16:52:59;4.03;;;2.90;;
25331;SDS011;13284;52.748;13.452;2022-09-09T16:55:27;12.47;;;9.27;;
25331;SDS011;13284;52.748;13.452;2022-09-09T16:57:54;14.40;;;12.57;;
25331;SDS011;13284;52.748;13.452;2022-09-09T17:00:20;14.17;;;9.90;;
25331;SDS011;13284;52.748;13.452;2022-09-09T17:02:48;15.20;;;9.10;;
25331;SDS011;13284;52.748;13.452;2022-09-09T17:05:14;11.63;;;10.53;;
25331;SDS011;13284;52.748;13.452;2022-09-09T17:07:40;7.50;;;5.73;;
25331;SDS011;13284;52.748;13.452;2022-09-09T17:10:06;2.70;;;2.40;;
25331;SDS011;13284;52.748;13.452;2022-09-09T17:12:32;2.30;;;2.07;;
25331;SDS011;13284;52.748;13.452;2022-09-09T17:15:00;3.10;;;1.87;;
25331;SDS011;13284;52.748;13.452;2022-09-09T17:17:28;2.30;;;2.10;;
25331;SDS011;13284;52.748;13.452;2022-09-09T17:19:54;4.13;;;2.40;;
25331;SDS011;13284;52.748;13.452;2022-09-09T17:22:20;2.93;;;1.67;;